Terminal Aerodrome Forecast
Issued by NWS Blacksburg, VA

Current Version | Previous Version | Text Only | Print | Product List | Glossary Off
Versions: 1 2 3 4 5 6 7 8 9 10 11 12 13 14 15 16 17 18 19 20 21 22 23 24 25 26 27 28 29 30 31 32 33 34 35 36 37 38 39 40 41

000
FTUS41 KRNK 300547
TAFBLF
TAF
KBLF 300547Z 3006/0106 VRB04KT P6SM OVC250
     FM301200 13008G16KT P6SM SCT025 OVC100
     FM301500 12011G20KT P6SM OVC015
     FM301800 13010G18KT 5SM -RADZ BR OVC009
     FM302300 14009G17KT 6SM -SHRA BR BKN015 OVC023=

USA.gov is the U.S. government's official web portal to all federal, state and local government web resources and services.